createdAt,value
2019-01-19T00:02:27.895Z,-2.18
2019-01-19T00:05:57.460Z,-2.15
2019-01-19T00:08:32.825Z,-1.81
2019-01-19T00:11:38.245Z,-1.55
2019-01-19T00:14:21.698Z,-1.55
2019-01-19T00:17:42.172Z,-1.65
2019-01-19T00:20:38.608Z,-1.65
2019-01-19T00:23:59.106Z,-1.65
2019-01-19T00:27:16.458Z,-1.79
2019-01-19T00:30:29.401Z,-1.92
2019-01-19T00:33:50.575Z,-2.01
2019-01-19T00:36:47.168Z,-1.98
2019-01-19T00:39:50.453Z,-1.88
2019-01-19T00:43:00.468Z,-2.03
2019-01-19T00:46:09.142Z,-2.13
2019-01-19T00:48:54.566Z,-2.22
2019-01-19T00:51:41.779Z,-2.02
2019-01-19T00:54:49.856Z,-2.02
2019-01-19T00:57:45.931Z,-1.94
2019-01-19T01:00:22.176Z,-2.19
2019-01-19T01:03:15.045Z,-2.29
2019-01-19T01:06:13.435Z,-2.27
2019-01-19T01:09:15.259Z,-2.33
2019-01-19T01:12:27.127Z,-2.35
2019-01-19T01:15:49.229Z,-2.37
2019-01-19T01:18:56.858Z,-2.23
2019-01-19T01:22:14.125Z,-1.91
2019-01-19T01:25:08.591Z,-2.13
2019-01-19T01:28:21.738Z,-2.17
2019-01-19T01:31:23.566Z,-2.15
2019-01-19T01:34:24.038Z,-2.20
2019-01-19T01:37:31.143Z,-2.16
2019-01-19T01:40:26.725Z,-2.00
2019-01-19T01:43:34.447Z,-2.03
2019-01-19T01:46:47.592Z,-2.16
2019-01-19T01:49:39.065Z,-2.27
2019-01-19T01:52:49.303Z,-2.18
2019-01-19T01:55:49.086Z,-2.29
2019-01-19T01:58:35.710Z,-2.35
2019-01-19T02:01:22.388Z,-2.58
2019-01-19T02:04:41.089Z,-2.70
2019-01-19T02:07:25.014Z,-2.68
2019-01-19T02:10:35.981Z,-2.69
2019-01-19T02:13:48.962Z,-2.61
2019-01-19T02:16:43.961Z,-2.57
2019-01-19T02:19:43.578Z,-2.63
2019-01-19T02:22:49.262Z,-2.66
2019-01-19T02:25:52.847Z,-2.97
2019-01-19T02:28:32.970Z,-2.91
2019-01-19T02:31:49.835Z,-2.90
2019-01-19T02:34:48.860Z,-2.95
2019-01-19T02:38:00.750Z,-2.91
2019-01-19T02:41:00.047Z,-2.74
2019-01-19T02:44:14.380Z,-2.82
2019-01-19T02:47:21.332Z,-2.88
2019-01-19T02:50:25.844Z,-2.79
2019-01-19T02:53:45.279Z,-2.67
2019-01-19T02:56:38.137Z,-2.73
2019-01-19T02:59:25.980Z,-2.91
2019-01-19T03:02:35.048Z,-3.08
2019-01-19T03:05:37.040Z,-3.23
2019-01-19T03:08:47.751Z,-3.29
2019-01-19T03:12:01.206Z,-3.42
2019-01-19T03:15:02.243Z,-3.57
2019-01-19T03:18:23.990Z,-3.71
2019-01-19T03:21:22.816Z,-3.68
2019-01-19T03:24:19.747Z,-3.91
2019-01-19T03:27:20.248Z,-3.95
2019-01-19T03:30:36.483Z,-4.07
2019-01-19T03:33:47.740Z,-4.12
2019-01-19T03:36:46.445Z,-4.24
2019-01-19T03:39:51.058Z,-4.32
2019-01-19T03:43:04.838Z,-4.30
2019-01-19T03:46:08.793Z,-4.36
2019-01-19T03:49:19.951Z,-4.43
2019-01-19T03:52:33.245Z,-4.50
2019-01-19T03:55:43.535Z,-4.54
2019-01-19T03:58:48.043Z,-4.59
2019-01-19T04:02:00.422Z,-4.57
2019-01-19T04:04:52.703Z,-4.56
2019-01-19T04:08:03.844Z,-4.55
2019-01-19T04:11:24.323Z,-4.42
2019-01-19T04:14:04.673Z,-4.46
2019-01-19T04:17:36.895Z,-4.51
2019-01-19T04:20:39.243Z,-4.49
2019-01-19T04:23:09.683Z,-4.57
2019-01-19T04:26:03.638Z,-4.63
2019-01-19T04:28:34.322Z,-4.62
2019-01-19T04:31:04.832Z,-4.66
2019-01-19T04:33:35.236Z,-4.62
2019-01-19T04:36:21.237Z,-4.63
2019-01-19T04:38:45.749Z,-4.64
2019-01-19T04:41:16.125Z,-4.65
2019-01-19T04:43:46.576Z,-4.58
2019-01-19T04:46:17.065Z,-4.69
2019-01-19T04:48:47.906Z,-4.77
2019-01-19T04:51:18.356Z,-4.74
2019-01-19T04:53:48.771Z,-4.68
2019-01-19T04:56:19.154Z,-4.70
2019-01-19T04:58:49.648Z,-4.74
2019-01-19T05:01:20.058Z,-4.69
2019-01-19T05:03:50.503Z,-4.68
2019-01-19T05:06:30.041Z,-4.60
2019-01-19T05:08:53.936Z,-4.34
2019-01-19T05:11:24.363Z,-4.37
2019-01-19T05:13:54.750Z,-4.49
2019-01-19T05:16:25.128Z,-4.58
2019-01-19T05:18:55.788Z,-4.66
2019-01-19T05:21:26.360Z,-4.76
2019-01-19T05:23:56.896Z,-4.76
2019-01-19T05:26:27.317Z,-4.79
2019-01-19T05:28:57.753Z,-4.82
2019-01-19T05:31:28.150Z,-4.87
2019-01-19T05:33:58.536Z,-4.88
2019-01-19T05:36:29.018Z,-4.86
2019-01-19T05:38:59.405Z,-4.85
2019-01-19T05:41:29.914Z,-4.83
2019-01-19T05:44:00.440Z,-4.82
2019-01-19T05:46:31.660Z,-4.87
2019-01-19T05:49:02.110Z,-4.88
2019-01-19T05:51:32.455Z,-4.91
2019-01-19T05:54:03.056Z,-4.92
2019-01-19T05:56:33.555Z,-4.93
2019-01-19T05:59:03.969Z,-4.95
2019-01-19T06:01:34.326Z,-4.98
2019-01-19T06:04:04.815Z,-4.96
2019-01-19T06:06:35.234Z,-4.93
2019-01-19T06:09:08.218Z,-4.94
2019-01-19T06:11:38.654Z,-4.93
2019-01-19T06:14:09.181Z,-4.90
2019-01-19T06:16:39.574Z,-4.91
2019-01-19T06:19:10.911Z,-4.83
2019-01-19T06:21:54.808Z,-4.84
2019-01-19T06:24:25.190Z,-4.88
2019-01-19T06:26:55.595Z,-4.90
2019-01-19T06:29:26.041Z,-4.88
2019-01-19T06:31:56.537Z,-4.89
2019-01-19T06:34:26.945Z,-4.89
2019-01-19T06:36:57.330Z,-4.91
2019-01-19T06:39:27.727Z,-4.90
2019-01-19T06:41:58.116Z,-4.90
2019-01-19T06:44:28.589Z,-4.85
2019-01-19T06:46:58.971Z,-4.80
2019-01-19T06:49:29.461Z,-4.81
2019-01-19T06:51:59.894Z,-4.81
2019-01-19T06:54:30.653Z,-4.79
2019-01-19T06:57:01.008Z,-4.74
2019-01-19T06:59:31.406Z,-4.71
2019-01-19T07:02:01.801Z,-4.67
2019-01-19T07:04:32.336Z,-4.62
2019-01-19T07:07:03.106Z,-4.53
2019-01-19T07:09:33.550Z,-4.45
2019-01-19T07:12:04.148Z,-4.39
2019-01-19T07:14:34.529Z,-4.26
2019-01-19T07:17:04.956Z,-4.17
2019-01-19T07:19:35.319Z,-4.05
2019-01-19T07:22:05.929Z,-3.94
2019-01-19T07:24:36.400Z,-3.89
2019-01-19T07:27:06.805Z,-3.81
2019-01-19T07:29:37.207Z,-3.73
2019-01-19T07:32:07.588Z,-3.66
2019-01-19T07:34:38.060Z,-3.62
2019-01-19T07:37:09.874Z,-3.57
2019-01-19T07:39:40.552Z,-3.50
2019-01-19T07:42:11.140Z,-3.42
2019-01-19T07:44:41.581Z,-3.35
2019-01-19T07:47:12.403Z,-3.20
2019-01-19T07:49:43.173Z,-3.03
2019-01-19T07:52:13.906Z,-2.87
2019-01-19T07:54:44.341Z,-2.87
2019-01-19T07:57:14.771Z,-2.85
2019-01-19T07:59:45.220Z,-2.77
2019-01-19T08:02:15.913Z,-2.67
2019-01-19T08:04:46.559Z,-2.49
2019-01-19T08:07:17.561Z,-2.40
2019-01-19T08:09:48.070Z,-2.41
2019-01-19T08:12:18.581Z,-2.36
2019-01-19T08:14:49.028Z,-2.37
2019-01-19T08:17:19.486Z,-2.34
2019-01-19T08:19:49.868Z,-2.21
2019-01-19T08:22:20.317Z,-2.13
2019-01-19T08:24:50.841Z,-1.95
2019-01-19T08:27:21.343Z,-1.88
2019-01-19T08:29:51.819Z,-1.90
2019-01-19T08:32:23.862Z,-1.88
2019-01-19T08:34:54.376Z,-1.80
2019-01-19T08:37:24.771Z,-1.75
2019-01-19T08:39:55.244Z,-1.62
2019-01-19T08:42:25.826Z,-1.60
2019-01-19T08:44:56.879Z,-1.57
2019-01-19T08:47:27.392Z,-1.41
2019-01-19T08:49:57.962Z,-1.46
2019-01-19T08:52:28.487Z,-1.38
2019-01-19T08:54:58.962Z,-1.29
2019-01-19T08:57:29.351Z,-1.28
2019-01-19T08:59:59.903Z,-1.24
2019-01-19T09:02:30.456Z,-1.24
2019-01-19T09:05:02.643Z,-1.13
2019-01-19T09:07:33.844Z,-1.01
2019-01-19T09:10:05.404Z,-1.04
2019-01-19T09:12:35.973Z,-1.09
2019-01-19T09:15:07.992Z,-1.07
2019-01-19T09:17:38.426Z,-1.08
2019-01-19T09:20:10.499Z,-0.95
2019-01-19T09:22:40.908Z,-0.87
2019-01-19T09:25:12.899Z,-0.74
2019-01-19T09:27:43.445Z,-0.57
2019-01-19T09:30:16.401Z,-0.57
2019-01-19T09:32:46.945Z,-0.48
2019-01-19T09:35:17.549Z,-0.34
2019-01-19T09:37:48.022Z,-0.41
2019-01-19T09:40:18.598Z,-0.48
2019-01-19T09:42:49.167Z,-0.35
2019-01-19T09:45:19.708Z,-0.13
2019-01-19T09:47:50.111Z,-0.19
2019-01-19T09:50:20.851Z,-0.09
2019-01-19T09:52:51.386Z,0.08
2019-01-19T09:55:21.776Z,0.02
2019-01-19T09:57:52.146Z,0.12
2019-01-19T10:00:23.033Z,0.38
2019-01-19T10:02:53.393Z,0.24
2019-01-19T10:05:23.903Z,0.25
2019-01-19T10:07:54.344Z,0.33
2019-01-19T10:10:24.735Z,0.48
2019-01-19T10:12:55.132Z,0.55
2019-01-19T10:15:27.523Z,0.65
2019-01-19T10:17:58.235Z,0.77
2019-01-19T10:20:28.731Z,0.82
2019-01-19T10:22:59.123Z,0.77
2019-01-19T10:25:29.497Z,0.76
2019-01-19T10:27:59.966Z,0.73
2019-01-19T10:30:30.390Z,0.78
2019-01-19T10:33:00.798Z,0.98
2019-01-19T10:35:31.267Z,1.03
2019-01-19T10:38:01.652Z,1.17
2019-01-19T10:40:32.108Z,1.17
2019-01-19T10:43:02.577Z,1.21
2019-01-19T10:45:33.097Z,1.15
2019-01-19T10:48:03.712Z,1.08
2019-01-19T10:50:34.135Z,1.10
2019-01-19T10:53:04.513Z,1.14
2019-01-19T10:55:34.998Z,1.20
2019-01-19T10:58:05.792Z,1.20
2019-01-19T11:00:36.248Z,1.35
2019-01-19T11:03:06.652Z,1.35
2019-01-19T11:05:38.085Z,1.38
2019-01-19T11:08:10.293Z,1.44
2019-01-19T11:10:40.660Z,1.47
2019-01-19T11:13:13.784Z,1.43
2019-01-19T11:15:44.880Z,1.43
2019-01-19T11:18:15.388Z,1.67
2019-01-19T11:20:46.465Z,1.67
2019-01-19T11:23:17.371Z,1.75
2019-01-19T11:25:48.986Z,1.76
2019-01-19T11:28:19.954Z,1.77
2019-01-19T11:30:50.516Z,1.71
2019-01-19T11:33:21.609Z,1.67
2019-01-19T11:35:52.489Z,1.86
2019-01-19T11:38:23.528Z,1.76
2019-01-19T11:40:54.968Z,1.82
2019-01-19T11:43:25.647Z,1.86
2019-01-19T11:45:56.635Z,2.02
2019-01-19T11:48:27.644Z,1.89
2019-01-19T11:50:58.462Z,1.97
2019-01-19T11:53:29.389Z,2.03
2019-01-19T11:56:00.246Z,2.07
2019-01-19T11:58:30.710Z,2.10
2019-01-19T12:01:01.801Z,2.06
2019-01-19T12:03:32.834Z,1.93
2019-01-19T12:06:04.578Z,1.86
2019-01-19T12:08:35.427Z,1.77
2019-01-19T12:11:06.656Z,1.75
2019-01-19T12:13:37.546Z,1.76
2019-01-19T12:16:08.687Z,1.62
2019-01-19T12:18:39.288Z,1.50
2019-01-19T12:21:10.234Z,1.58
2019-01-19T12:23:40.987Z,1.70
2019-01-19T12:26:12.203Z,1.62
2019-01-19T12:28:42.910Z,1.58
2019-01-19T12:31:14.151Z,1.59
2019-01-19T12:33:45.418Z,1.61
2019-01-19T12:36:15.790Z,1.63
2019-01-19T12:38:46.825Z,1.59
2019-01-19T12:41:18.636Z,1.48
2019-01-19T12:43:49.161Z,1.50
2019-01-19T12:46:19.948Z,1.48
2019-01-19T12:48:51.181Z,1.44
2019-01-19T12:51:21.833Z,1.29
2019-01-19T12:53:53.249Z,1.26
2019-01-19T12:56:23.915Z,1.31
2019-01-19T12:58:54.802Z,1.21
2019-01-19T13:01:25.970Z,1.26
2019-01-19T13:03:58.532Z,1.28
2019-01-19T13:06:51.109Z,1.21
2019-01-19T13:09:35.686Z,1.20
2019-01-19T13:12:39.628Z,1.30
2019-01-19T13:15:56.765Z,1.25
2019-01-19T13:18:59.872Z,1.25
2019-01-19T13:22:08.778Z,1.28
2019-01-19T13:25:05.662Z,1.46
2019-01-19T13:27:59.247Z,1.28
2019-01-19T13:31:12.982Z,1.22
2019-01-19T13:34:16.256Z,1.12
2019-01-19T13:37:00.476Z,1.03
2019-01-19T13:40:28.071Z,1.07
2019-01-19T13:43:14.147Z,1.06
2019-01-19T13:46:13.297Z,1.01
2019-01-19T13:49:21.540Z,0.93
2019-01-19T13:52:18.388Z,0.91
2019-01-19T13:55:51.837Z,0.81
2019-01-19T13:58:47.261Z,0.82
2019-01-19T14:02:03.006Z,0.77
2019-01-19T14:04:43.162Z,0.78
2019-01-19T14:08:00.172Z,0.68
2019-01-19T14:10:58.310Z,0.65
2019-01-19T14:14:13.082Z,0.62
2019-01-19T14:17:21.157Z,0.67
2019-01-19T14:20:00.769Z,0.61
2019-01-19T14:23:18.308Z,0.45
2019-01-19T14:26:12.821Z,0.42
2019-01-19T14:29:17.229Z,0.28
2019-01-19T14:32:42.202Z,0.22
2019-01-19T14:36:06.530Z,0.22
2019-01-19T14:39:36.344Z,0.09
2019-01-19T14:42:47.187Z,0.08
2019-01-19T14:46:00.530Z,0.09
2019-01-19T14:49:31.108Z,0.08
2019-01-19T14:53:01.377Z,-0.01
2019-01-19T14:56:12.431Z,-0.03
2019-01-19T14:59:18.427Z,-0.09
2019-01-19T15:02:36.064Z,-0.19
2019-01-19T15:05:17.298Z,-0.22
2019-01-19T15:08:26.719Z,-0.26
2019-01-19T15:11:51.869Z,-0.32
2019-01-19T15:14:36.862Z,-0.33
2019-01-19T15:17:39.692Z,-0.38
2019-01-19T15:20:28.476Z,-0.41
2019-01-19T15:23:39.745Z,-0.42
2019-01-19T15:26:49.022Z,-0.47
2019-01-19T15:29:50.676Z,-0.53
2019-01-19T15:32:34.651Z,-0.49
2019-01-19T15:35:35.912Z,-0.51
2019-01-19T15:39:10.748Z,-0.53
2019-01-19T15:42:21.416Z,-0.57
2019-01-19T15:45:40.172Z,-0.57
2019-01-19T15:48:41.558Z,-0.59
2019-01-19T15:51:50.410Z,-0.61
2019-01-19T15:54:35.388Z,-0.60
2019-01-19T15:57:34.123Z,-0.47
2019-01-19T16:00:28.711Z,-0.61
2019-01-19T16:03:41.793Z,-0.73
2019-01-19T16:06:44.698Z,-0.74
2019-01-19T16:09:58.984Z,-0.76
2019-01-19T16:13:02.232Z,-0.71
2019-01-19T16:16:27.234Z,-0.66
2019-01-19T16:19:45.034Z,-0.63
2019-01-19T16:22:38.817Z,-0.69
2019-01-19T16:25:58.911Z,-0.71
2019-01-19T16:29:10.738Z,-0.75
2019-01-19T16:32:32.897Z,-0.71
2019-01-19T16:35:41.814Z,-0.72
2019-01-19T16:38:50.542Z,-0.67
2019-01-19T16:41:41.853Z,-0.66
2019-01-19T16:45:09.611Z,-0.72
2019-01-19T16:48:41.879Z,-0.73
2019-01-19T16:51:57.649Z,-0.70
2019-01-19T16:55:09.551Z,-0.68
2019-01-19T16:58:28.571Z,-0.53
2019-01-19T17:01:37.976Z,-0.60
2019-01-19T17:04:39.815Z,-0.64
2019-01-19T17:07:44.932Z,-0.60
2019-01-19T17:10:56.757Z,-0.63
2019-01-19T17:14:21.524Z,-0.62
2019-01-19T17:17:28.725Z,-0.64
2019-01-19T17:20:22.352Z,-0.65
2019-01-19T17:23:12.544Z,-0.64
2019-01-19T17:26:24.737Z,-0.65
2019-01-19T17:29:35.256Z,-0.64
2019-01-19T17:32:47.609Z,-0.61
2019-01-19T17:35:54.001Z,-0.57
2019-01-19T17:39:05.044Z,-0.61
2019-01-19T17:42:26.977Z,-0.56
2019-01-19T17:45:13.419Z,-0.51
2019-01-19T17:48:27.743Z,-0.48
2019-01-19T17:51:25.490Z,-0.53
2019-01-19T17:54:12.927Z,-0.51
2019-01-19T17:57:13.510Z,-0.55
2019-01-19T18:00:14.135Z,-0.57
2019-01-19T18:03:40.519Z,-0.55
2019-01-19T18:06:22.075Z,-0.56
2019-01-19T18:09:24.042Z,-0.55
2019-01-19T18:12:29.343Z,-0.43
2019-01-19T18:15:44.522Z,-0.34
2019-01-19T18:19:04.165Z,-0.33
2019-01-19T18:22:10.637Z,-0.42
2019-01-19T18:25:06.580Z,-0.44
2019-01-19T18:28:26.001Z,-0.44
2019-01-19T18:31:42.980Z,-0.44
2019-01-19T18:34:55.749Z,-0.49
2019-01-19T18:37:54.790Z,-0.49
2019-01-19T18:40:52.128Z,-0.35
2019-01-19T18:44:03.034Z,-0.35
2019-01-19T18:47:21.089Z,-0.45
2019-01-19T18:50:43.061Z,-0.40
2019-01-19T18:53:40.071Z,-0.41
2019-01-19T18:56:45.818Z,-0.37
2019-01-19T18:59:53.405Z,-0.41
2019-01-19T19:03:35.491Z,-0.44
2019-01-19T19:06:37.193Z,-0.33
2019-01-19T19:09:40.835Z,-0.39
2019-01-19T19:12:26.581Z,-0.42
2019-01-19T19:15:42.832Z,-0.44
2019-01-19T19:19:02.343Z,-0.43
2019-01-19T19:22:19.597Z,-0.36
2019-01-19T19:25:22.759Z,-0.31
2019-01-19T19:28:21.580Z,-0.39
2019-01-19T19:31:34.608Z,-0.38
2019-01-19T19:34:29.090Z,-0.42
2019-01-19T19:37:09.667Z,-0.41
2019-01-19T19:40:21.917Z,-0.44
2019-01-19T19:43:23.997Z,-0.49
2019-01-19T19:46:19.851Z,-0.64
2019-01-19T19:49:31.836Z,-0.73
2019-01-19T19:52:04.322Z,-0.84
2019-01-19T19:54:36.352Z,-0.89
2019-01-19T19:57:08.797Z,-0.91
2019-01-19T19:59:40.718Z,-0.95
2019-01-19T20:02:11.872Z,-0.98
2019-01-19T20:04:42.922Z,-0.99
2019-01-19T20:07:13.925Z,-0.98
2019-01-19T20:09:44.869Z,-1.00
2019-01-19T20:12:15.821Z,-1.03
2019-01-19T20:14:46.758Z,-1.05
2019-01-19T20:17:17.842Z,-1.07
2019-01-19T20:19:48.721Z,-1.11
2019-01-19T20:22:19.766Z,-1.10
2019-01-19T20:24:50.602Z,-1.20
2019-01-19T20:27:21.016Z,-1.22
2019-01-19T20:29:51.903Z,-1.20
2019-01-19T20:32:22.825Z,-1.14
2019-01-19T20:34:53.957Z,-1.10
2019-01-19T20:37:24.909Z,-1.10
2019-01-19T20:39:55.954Z,-1.12
2019-01-19T20:42:26.846Z,-1.13
2019-01-19T20:44:58.078Z,-1.19
2019-01-19T20:47:29.102Z,-1.15
2019-01-19T20:49:59.488Z,-1.25
2019-01-19T20:52:29.937Z,-1.34
2019-01-19T20:55:00.993Z,-1.34
2019-01-19T20:57:32.132Z,-1.32
2019-01-19T21:00:03.324Z,-1.37
2019-01-19T21:02:34.371Z,-1.41
2019-01-19T21:05:05.366Z,-1.47
2019-01-19T21:07:36.004Z,-1.42
2019-01-19T21:10:06.692Z,-1.44
2019-01-19T21:12:38.156Z,-1.46
2019-01-19T21:15:10.824Z,-1.47
2019-01-19T21:17:43.414Z,-1.46
2019-01-19T21:20:14.463Z,-1.43
2019-01-19T21:22:45.315Z,-1.46
2019-01-19T21:25:16.174Z,-1.56
2019-01-19T21:27:47.181Z,-1.58
2019-01-19T21:30:18.449Z,-1.62
2019-01-19T21:32:49.315Z,-1.69
2019-01-19T21:35:20.299Z,-1.72
2019-01-19T21:37:53.370Z,-1.78
2019-01-19T21:40:24.144Z,-1.85
2019-01-19T21:42:55.277Z,-1.89
2019-01-19T21:45:26.194Z,-1.94
2019-01-19T21:47:57.188Z,-1.85
2019-01-19T21:50:28.364Z,-1.81
2019-01-19T21:52:59.224Z,-1.81
2019-01-19T21:55:30.213Z,-1.83
2019-01-19T21:58:02.672Z,-1.89
2019-01-19T22:00:34.242Z,-1.80
2019-01-19T22:03:05.407Z,-1.84
2019-01-19T22:05:37.297Z,-1.87
2019-01-19T22:08:08.409Z,-1.67
2019-01-19T22:10:46.147Z,-1.71
2019-01-19T22:13:13.439Z,-1.75
2019-01-19T22:15:44.386Z,-1.76
2019-01-19T22:18:15.459Z,-1.72
2019-01-19T22:20:46.448Z,-1.69
2019-01-19T22:23:17.498Z,-1.62
2019-01-19T22:25:50.475Z,-1.61
2019-01-19T22:28:21.409Z,-1.59
2019-01-19T22:30:52.661Z,-1.53
2019-01-19T22:33:23.980Z,-1.51
2019-01-19T22:35:54.474Z,-1.43
2019-01-19T22:38:25.489Z,-1.46
2019-01-19T22:40:56.441Z,-1.48
2019-01-19T22:43:32.866Z,-1.48
2019-01-19T22:46:05.678Z,-1.40
2019-01-19T22:48:38.465Z,-1.34
2019-01-19T22:51:11.339Z,-1.33
2019-01-19T22:53:43.984Z,-1.28
2019-01-19T22:56:14.565Z,-1.28
2019-01-19T22:58:45.490Z,-1.24
2019-01-19T23:01:35.976Z,-1.23
2019-01-19T23:04:08.635Z,-1.30
2019-01-19T23:06:39.552Z,-1.35
2019-01-19T23:09:11.962Z,-1.30
2019-01-19T23:11:44.879Z,-1.36
2019-01-19T23:14:15.628Z,-1.34
2019-01-19T23:16:46.673Z,-1.39
2019-01-19T23:19:17.625Z,-1.49
2019-01-19T23:21:49.594Z,-1.41
2019-01-19T23:24:22.686Z,-1.51
2019-01-19T23:26:56.930Z,-1.64
2019-01-19T23:29:29.809Z,-1.70
2019-01-19T23:32:01.422Z,-1.70
2019-01-19T23:34:32.359Z,-1.55
2019-01-19T23:37:02.731Z,-1.69
2019-01-19T23:39:34.382Z,-1.74
2019-01-19T23:42:05.464Z,-1.78
2019-01-19T23:44:36.292Z,-1.70
2019-01-19T23:47:07.222Z,-1.72
2019-01-19T23:49:37.861Z,-1.81
2019-01-19T23:52:08.989Z,-1.76
2019-01-19T23:54:39.794Z,-1.56
2019-01-19T23:57:11.054Z,-1.63
2019-01-19T23:59:41.830Z,-1.64
